Time;durP1;ratioP1;P1;durP2;ratioP2;P2;SDS_P1;SDS_P2;PMS_P1;PMS_P2;Temp;Humidity;BMP_temperature;BMP_pressure;BME280_temperature;BME280_humidity;BME280_pressure;Samples;Min_cycle;Max_cycle;Signal;HPM_P1;HPM_P2
2022/06/25 03:01:21;;;;;;;0.70;0.60;;;16.30;88.60;;;;;;5794344;22;20927;-75
2022/06/25 03:03:47;;;;;;;1.07;0.80;;;16.20;88.90;;;;;;5038446;28;20450;-75
2022/06/25 03:06:14;;;;;;;0.80;0.67;;;16.10;89.40;;;;;;5038689;28;20475;-75
2022/06/25 03:08:41;;;;;;;0.70;0.60;;;16.10;89.40;;;;;;5038993;28;20447;-75
2022/06/25 03:11:07;;;;;;;0.80;0.63;;;16.20;89.30;;;;;;5038789;28;21032;-75
2022/06/25 03:13:36;;;;;;;0.70;0.60;;;16.10;89.50;;;;;;5038553;28;20439;-75
2022/06/25 03:16:04;;;;;;;0.90;0.80;;;16.10;88.90;;;;;;5039538;28;20577;-75
2022/06/25 03:18:32;;;;;;;0.70;0.60;;;16.10;89.70;;;;;;5038623;28;20803;-75
2022/06/25 03:20:58;;;;;;;0.90;0.80;;;16.20;88.70;;;;;;5038058;28;20502;-75
2022/06/25 03:23:25;;;;;;;0.70;0.60;;;16.20;89.20;;;;;;5038177;28;20451;-75
2022/06/25 03:25:52;;;;;;;1.00;0.70;;;16.30;88.60;;;;;;5038361;28;20493;-75
2022/06/25 03:28:19;;;;;;;0.70;0.60;;;16.00;89.30;;;;;;5038308;28;20447;-75
2022/06/25 03:30:45;;;;;;;1.17;0.70;;;15.80;90.10;;;;;;5038031;28;20455;-75
2022/06/25 03:33:13;;;;;;;0.70;0.60;;;15.80;90.50;;;;;;5038096;28;20451;-75
2022/06/25 03:35:41;;;;;;;0.80;0.60;;;15.60;90.70;;;;;;5038465;28;20455;-75
2022/06/25 03:38:08;;;;;;;0.70;0.70;;;15.60;90.90;;;;;;5037814;28;20498;-75
2022/06/25 03:40:34;;;;;;;0.80;0.80;;;15.60;91.20;;;;;;5037813;28;20450;-75
2022/06/25 03:43:01;;;;;;;0.70;0.70;;;15.60;91.40;;;;;;5037744;28;20469;-75
2022/06/25 03:45:28;;;;;;;0.70;0.70;;;15.70;91.30;;;;;;5037835;28;20478;-75
2022/06/25 03:47:54;;;;;;;0.80;0.67;;;15.80;90.80;;;;;;5037674;28;20495;-74
2022/06/25 03:50:22;;;;;;;1.20;0.70;;;15.60;90.60;;;;;;5037800;28;20451;-75
2022/06/25 03:52:51;;;;;;;0.83;0.70;;;15.50;91.30;;;;;;5037775;28;20447;-75
2022/06/25 03:55:18;;;;;;;0.70;0.60;;;15.60;91.60;;;;;;5037386;28;20447;-75
2022/06/25 03:57:45;;;;;;;0.70;0.60;;;15.60;91.20;;;;;;5037382;28;20473;-75
2022/06/25 04:00:14;;;;;;;1.47;0.60;;;15.60;91.50;;;;;;5037631;28;20514;-75
2022/06/25 04:02:41;;;;;;;0.90;0.70;;;15.60;91.30;;;;;;5037054;28;20487;-75
2022/06/25 04:05:08;;;;;;;0.70;0.60;;;15.80;91.20;;;;;;5037257;28;20444;-75
2022/06/25 04:07:35;;;;;;;0.73;0.73;;;15.80;91.00;;;;;;5036717;28;20482;-75
2022/06/25 04:10:03;;;;;;;0.70;0.70;;;15.90;90.30;;;;;;5037343;28;20447;-75
2022/06/25 04:12:30;;;;;;;1.73;0.70;;;16.00;90.30;;;;;;5036631;28;20507;-75
2022/06/25 04:14:56;;;;;;;0.80;0.70;;;15.90;90.10;;;;;;5037040;28;20451;-75
2022/06/25 04:17:23;;;;;;;0.73;0.70;;;15.90;90.60;;;;;;5036990;28;20435;-75
2022/06/25 04:19:50;;;;;;;0.70;0.67;;;15.90;91.10;;;;;;5037201;28;20459;-75
2022/06/25 04:22:16;;;;;;;0.90;0.80;;;15.90;90.60;;;;;;5037199;28;20479;-75
2022/06/25 04:24:43;;;;;;;0.80;0.73;;;16.00;90.50;;;;;;5036902;28;20879;-74
2022/06/25 04:29:03;;;;;;;0.70;0.60;;;16.10;90.40;;;;;;5037514;28;20483;-75
2022/06/25 04:29:57;;;;;;;0.70;0.70;;;16.20;89.90;;;;;;5036984;28;20444;-75
2022/06/25 04:32:24;;;;;;;1.00;0.77;;;16.20;89.90;;;;;;5036881;28;20463;-75
2022/06/25 04:34:51;;;;;;;0.80;0.70;;;16.20;89.70;;;;;;5037327;28;20443;-75
2022/06/25 04:37:17;;;;;;;0.80;0.60;;;16.20;89.80;;;;;;5037227;28;20482;-75
2022/06/25 04:39:44;;;;;;;1.23;0.70;;;16.20;90.10;;;;;;5036796;28;20447;-75
2022/06/25 04:42:12;;;;;;;0.70;0.60;;;16.20;89.80;;;;;;5036761;28;20471;-75
2022/06/25 04:44:38;;;;;;;0.70;0.60;;;16.40;89.80;;;;;;5037028;28;20451;-75
2022/06/25 04:47:05;;;;;;;1.10;0.60;;;16.50;89.30;;;;;;5036538;28;20585;-75
2022/06/25 04:49:32;;;;;;;0.80;0.80;;;16.50;89.30;;;;;;5036918;28;20470;-75
2022/06/25 04:51:59;;;;;;;0.70;0.70;;;16.60;88.80;;;;;;5036645;28;20479;-75
2022/06/25 04:54:25;;;;;;;0.70;0.50;;;16.70;89.20;;;;;;5036614;28;20485;-75
2022/06/25 04:56:52;;;;;;;0.70;0.60;;;16.80;88.60;;;;;;5036435;28;20447;-74
2022/06/25 04:59:20;;;;;;;0.70;0.60;;;16.90;88.30;;;;;;5034082;28;20447;-75
2022/06/25 05:01:47;;;;;;;0.70;0.70;;;16.90;87.80;;;;;;5033634;28;20479;-75
2022/06/25 05:04:13;;;;;;;0.70;0.60;;;17.00;88.10;;;;;;5033915;28;20493;-74
2022/06/25 05:06:40;;;;;;;0.80;0.70;;;17.20;87.80;;;;;;5033852;28;20533;-74
2022/06/25 05:09:07;;;;;;;0.70;0.60;;;17.30;87.30;;;;;;5033528;28;20938;-74
2022/06/25 05:11:33;;;;;;;1.07;0.60;;;17.20;87.20;;;;;;5033444;28;20889;-74
2022/06/25 05:14:00;;;;;;;0.70;0.60;;;17.40;87.60;;;;;;5033494;28;20867;-73
2022/06/25 05:16:28;;;;;;;0.70;0.50;;;17.60;87.10;;;;;;5033551;28;20505;-72
2022/06/25 05:18:54;;;;;;;0.70;0.60;;;17.70;85.70;;;;;;5033179;28;20501;-72
2022/06/25 05:21:21;;;;;;;0.70;0.60;;;17.70;85.40;;;;;;5033839;28;20482;-72
2022/06/25 05:23:48;;;;;;;0.70;0.50;;;17.80;86.10;;;;;;5033841;28;20447;-72
2022/06/25 05:26:15;;;;;;;0.70;0.50;;;17.70;85.80;;;;;;5033865;28;20493;-72
2022/06/25 05:28:41;;;;;;;0.90;0.60;;;17.90;85.60;;;;;;5034136;28;20476;-72
2022/06/25 05:31:08;;;;;;;0.70;0.60;;;18.00;85.70;;;;;;5034035;28;20463;-72
2022/06/25 05:33:36;;;;;;;0.80;0.60;;;18.10;84.60;;;;;;5033687;28;20866;-72
2022/06/25 05:36:03;;;;;;;0.70;0.50;;;18.20;85.50;;;;;;5033860;28;20459;-72
2022/06/25 05:38:30;;;;;;;0.70;0.53;;;18.10;84.90;;;;;;5033943;28;20935;-72
2022/06/25 05:40:57;;;;;;;0.70;0.50;;;18.20;84.70;;;;;;5033908;28;20540;-72
2022/06/25 05:43:23;;;;;;;0.70;0.50;;;18.40;85.00;;;;;;5034176;28;20463;-72
2022/06/25 05:45:50;;;;;;;0.80;0.60;;;18.50;84.40;;;;;;5033560;28;20858;-72
2022/06/25 05:48:17;;;;;;;0.70;0.60;;;18.50;84.70;;;;;;5034039;28;20475;-73
2022/06/25 05:50:45;;;;;;;1.00;0.50;;;18.50;84.60;;;;;;5033897;28;20835;-73
2022/06/25 05:53:11;;;;;;;0.70;0.60;;;18.40;85.00;;;;;;5033861;28;20447;-73
2022/06/25 05:55:38;;;;;;;0.70;0.57;;;18.30;83.90;;;;;;5033902;28;20497;-73
2022/06/25 05:58:05;;;;;;;0.70;0.57;;;18.10;84.40;;;;;;5033806;28;20443;-73
2022/06/25 06:00:31;;;;;;;0.90;0.57;;;18.10;85.70;;;;;;5033831;28;20455;-73
2022/06/25 06:02:58;;;;;;;0.70;0.60;;;18.30;85.90;;;;;;5033583;28;20471;-73
2022/06/25 06:05:25;;;;;;;1.00;0.70;;;18.70;85.20;;;;;;5033144;28;20517;-73
2022/06/25 06:07:53;;;;;;;0.70;0.50;;;19.00;83.90;;;;;;5033142;28;20533;-73
2022/06/25 06:10:19;;;;;;;0.70;0.50;;;18.90;83.20;;;;;;5033444;28;20468;-74
2022/06/25 06:12:46;;;;;;;0.90;0.60;;;19.00;83.80;;;;;;5033306;28;20474;-74
2022/06/25 06:15:13;;;;;;;0.80;0.60;;;18.90;83.80;;;;;;5033465;28;20467;-73
2022/06/25 06:17:39;;;;;;;0.70;0.53;;;19.20;82.90;;;;;;5033340;28;20846;-74
2022/06/25 06:20:07;;;;;;;0.70;0.60;;;19.40;82.90;;;;;;5033346;28;20450;-74
2022/06/25 06:22:34;;;;;;;0.70;0.60;;;19.60;80.90;;;;;;5033296;28;20467;-74
2022/06/25 06:25:02;;;;;;;0.70;0.53;;;19.70;82.00;;;;;;5033584;28;20451;-74
2022/06/25 06:27:29;;;;;;;0.70;0.67;;;19.70;82.90;;;;;;5033096;28;20483;-73
2022/06/25 06:29:55;;;;;;;0.70;0.60;;;19.60;81.00;;;;;;5034783;28;20459;-72
2022/06/25 06:32:22;;;;;;;0.70;0.50;;;19.60;81.80;;;;;;5037437;28;20567;-72
2022/06/25 06:34:49;;;;;;;0.70;0.60;;;19.80;81.80;;;;;;5038399;28;20451;-72
2022/06/25 06:37:15;;;;;;;0.70;0.50;;;20.30;82.20;;;;;;5038289;28;20447;-73
2022/06/25 06:39:42;;;;;;;0.70;0.50;;;20.70;80.40;;;;;;5037663;28;20496;-72
2022/06/25 06:42:10;;;;;;;0.70;0.50;;;20.80;77.80;;;;;;5038163;28;20466;-73
2022/06/25 06:44:37;;;;;;;0.70;0.57;;;20.80;77.70;;;;;;5037308;28;20447;-73
2022/06/25 06:47:04;;;;;;;0.70;0.60;;;20.40;77.50;;;;;;5037820;28;20444;-73
2022/06/25 06:49:30;;;;;;;0.70;0.50;;;20.40;77.80;;;;;;5037410;28;20446;-72
2022/06/25 06:51:57;;;;;;;0.70;0.50;;;20.40;78.60;;;;;;5036847;28;20467;-72
2022/06/25 06:54:23;;;;;;;0.70;0.50;;;20.70;78.70;;;;;;5036711;28;20451;-73
2022/06/25 06:56:50;;;;;;;0.70;0.50;;;20.80;78.40;;;;;;5037351;28;20806;-74
2022/06/25 06:59:18;;;;;;;0.70;0.50;;;21.00;77.00;;;;;;5036696;28;20443;-73
2022/06/25 07:01:45;;;;;;;0.70;0.57;;;21.30;77.30;;;;;;5037728;28;20529;-74
2022/06/25 07:04:11;;;;;;;0.70;0.50;;;21.50;74.70;;;;;;5038441;28;20447;-74
2022/06/25 07:06:38;;;;;;;0.70;0.50;;;21.60;75.00;;;;;;5038070;28;20455;-74
2022/06/25 07:09:05;;;;;;;0.70;0.60;;;21.60;74.80;;;;;;5038001;28;20483;-73
2022/06/25 07:11:31;;;;;;;0.70;0.50;;;21.50;76.90;;;;;;5037953;28;20509;-74
2022/06/25 07:14:00;;;;;;;1.00;0.50;;;21.60;75.20;;;;;;5038392;28;20818;-74
2022/06/25 07:16:29;;;;;;;0.70;0.50;;;21.90;75.70;;;;;;5037895;28;20452;-74
2022/06/25 07:18:56;;;;;;;0.70;0.60;;;21.70;75.10;;;;;;5038378;28;20836;-74
2022/06/25 07:21:23;;;;;;;0.70;0.60;;;21.80;75.90;;;;;;5038773;28;20474;-74
2022/06/25 07:23:50;;;;;;;0.70;0.50;;;21.80;75.40;;;;;;5037900;28;20453;-75
2022/06/25 07:26:17;;;;;;;0.70;0.50;;;21.90;74.40;;;;;;5036676;28;20443;-75
2022/06/25 07:28:44;;;;;;;0.70;0.60;;;21.80;75.50;;;;;;5036817;28;20536;-74
2022/06/25 07:31:10;;;;;;;1.10;0.70;;;21.90;74.00;;;;;;5037562;28;20471;-74
2022/06/25 07:33:39;;;;;;;0.70;0.60;;;22.10;74.20;;;;;;5038772;28;20443;-74
2022/06/25 07:36:07;;;;;;;0.70;0.60;;;21.70;74.70;;;;;;5037679;28;20509;-73
2022/06/25 07:38:34;;;;;;;0.97;0.60;;;21.80;76.00;;;;;;5037350;28;20943;-74
2022/06/25 07:41:01;;;;;;;0.70;0.60;;;22.00;75.00;;;;;;5037515;28;20550;-74
2022/06/25 07:43:27;;;;;;;0.70;0.50;;;22.00;74.30;;;;;;5037460;28;20439;-74
2022/06/25 07:45:55;;;;;;;0.70;0.50;;;22.10;72.90;;;;;;5038291;28;20443;-74
2022/06/25 07:48:22;;;;;;;0.70;0.60;;;22.10;74.40;;;;;;5037818;28;21083;-74
2022/06/25 07:53:35;;;;;;;1.77;0.70;;;22.30;72.10;;;;;;5038431;28;20411;-74
2022/06/25 07:56:01;;;;;;;0.70;0.60;;;22.60;73.30;;;;;;5038295;28;20521;-75
2022/06/25 07:58:28;;;;;;;0.80;0.60;;;22.60;71.10;;;;;;5038366;28;20497;-74
2022/06/25 08:00:55;;;;;;;0.70;0.60;;;22.60;72.10;;;;;;5037532;28;20517;-75
2022/06/25 08:03:22;;;;;;;0.70;0.50;;;22.80;72.70;;;;;;5037772;28;20462;-74
2022/06/25 08:05:49;;;;;;;0.70;0.60;;;22.70;70.60;;;;;;5037847;28;20455;-74
2022/06/25 08:08:16;;;;;;;0.73;0.60;;;23.00;70.30;;;;;;5039006;28;20540;-74
2022/06/25 08:10:43;;;;;;;0.80;0.73;;;23.30;70.00;;;;;;5038080;28;20471;-74
2022/06/25 08:13:10;;;;;;;0.70;0.60;;;23.20;69.00;;;;;;5038164;28;20950;-74
2022/06/25 08:15:37;;;;;;;0.70;0.67;;;23.10;70.50;;;;;;5038058;28;20474;-75
2022/06/25 08:18:04;;;;;;;0.70;0.60;;;23.00;70.40;;;;;;5038050;28;20451;-75
2022/06/25 08:20:31;;;;;;;0.70;0.60;;;22.80;71.30;;;;;;5037473;28;20497;-75
2022/06/25 08:22:59;;;;;;;0.80;0.70;;;22.90;70.20;;;;;;5038118;28;20455;-75
2022/06/25 08:25:25;;;;;;;0.83;0.70;;;23.30;72.10;;;;;;5037692;28;20443;-75
2022/06/25 08:27:53;;;;;;;0.70;0.60;;;23.50;70.20;;;;;;5037209;28;20514;-75
2022/06/25 08:30:21;;;;;;;1.00;0.67;;;23.70;69.60;;;;;;5036476;28;20818;-74
2022/06/25 08:32:48;;;;;;;0.90;0.70;;;23.70;70.20;;;;;;5038018;28;20505;-74
2022/06/25 08:35:15;;;;;;;0.70;0.60;;;23.50;67.10;;;;;;5037477;28;20452;-74
2022/06/25 08:37:45;;;;;;;0.70;0.50;;;23.40;70.30;;;;;;5037905;28;20447;-75
2022/06/25 08:40:13;;;;;;;0.70;0.60;;;23.30;70.40;;;;;;5037700;28;20447;-75
2022/06/25 08:42:40;;;;;;;0.70;0.60;;;23.80;70.50;;;;;;5036807;28;20876;-77
2022/06/25 08:45:08;;;;;;;1.90;0.60;;;24.20;67.30;;;;;;5034479;28;20501;-76
2022/06/25 08:47:35;;;;;;;0.80;0.60;;;24.20;65.90;;;;;;5034536;28;20447;-76
2022/06/25 08:50:03;;;;;;;1.43;0.60;;;24.10;67.10;;;;;;5034376;28;20447;-75
2022/06/25 08:52:31;;;;;;;0.70;0.50;;;24.20;67.60;;;;;;5035112;28;20467;-76
2022/06/25 08:54:59;;;;;;;0.80;0.60;;;24.20;65.40;;;;;;5034168;28;20451;-73
2022/06/25 08:57:27;;;;;;;0.80;0.60;;;24.10;66.40;;;;;;5035832;28;20501;-73
2022/06/25 08:59:56;;;;;;;1.10;0.60;;;24.10;67.10;;;;;;5037331;28;20450;-74
2022/06/25 09:02:23;;;;;;;0.70;0.50;;;24.00;66.80;;;;;;5036707;28;20899;-73
2022/06/25 09:04:49;;;;;;;0.70;0.60;;;23.70;66.60;;;;;;5037450;28;20482;-73
2022/06/25 09:07:18;;;;;;;0.70;0.53;;;23.30;67.10;;;;;;5037132;28;20448;-74
2022/06/25 09:09:46;;;;;;;0.70;0.60;;;23.40;67.70;;;;;;5037087;28;20493;-73
2022/06/25 09:12:14;;;;;;;0.70;0.60;;;23.50;66.30;;;;;;5036746;28;20499;-73
2022/06/25 09:14:43;;;;;;;0.80;0.60;;;23.80;65.50;;;;;;5036477;28;20451;-73
2022/06/25 09:17:12;;;;;;;0.80;0.60;;;23.80;67.80;;;;;;5038131;28;20942;-73
2022/06/25 09:19:40;;;;;;;0.80;0.60;;;23.80;66.80;;;;;;5036751;28;20501;-73
2022/06/25 09:22:09;;;;;;;0.70;0.57;;;23.50;65.90;;;;;;5036495;28;20475;-74
2022/06/25 09:24:45;;;;;;;0.70;0.50;;;23.60;66.30;;;;;;5036868;28;20455;-74
2022/06/25 09:27:12;;;;;;;0.70;0.70;;;23.50;67.00;;;;;;5037434;28;20873;-73
2022/06/25 09:29:40;;;;;;;0.70;0.60;;;23.40;67.40;;;;;;5036977;28;20479;-73
2022/06/25 09:32:09;;;;;;;0.70;0.60;;;23.10;68.10;;;;;;5037461;28;20475;-73
2022/06/25 09:34:37;;;;;;;0.70;0.60;;;22.90;69.00;;;;;;5037006;28;20455;-73
2022/06/25 09:37:25;;;;;;;0.70;0.60;;;23.00;68.20;;;;;;5036338;28;20948;-73
2022/06/25 09:39:54;;;;;;;1.40;0.63;;;23.10;67.20;;;;;;5037039;28;20458;-73
2022/06/25 09:42:24;;;;;;;0.70;0.50;;;23.30;68.70;;;;;;5037059;28;20471;-73
2022/06/25 09:45:04;;;;;;;0.70;0.70;;;23.40;68.30;;;;;;5036301;28;20447;-73
2022/06/25 09:47:35;;;;;;;0.80;0.60;;;23.50;68.80;;;;;;5035968;28;20937;-73
2022/06/25 09:50:08;;;;;;;0.73;0.63;;;23.70;67.70;;;;;;5036010;28;20471;-73
2022/06/25 09:52:36;;;;;;;0.70;0.70;;;23.60;67.10;;;;;;5036240;28;20470;-73
2022/06/25 09:55:03;;;;;;;0.70;0.60;;;23.70;66.40;;;;;;5036676;28;20451;-73
2022/06/25 09:57:31;;;;;;;0.70;0.60;;;23.80;65.70;;;;;;5037356;28;20444;-73
2022/06/25 10:00:01;;;;;;;0.70;0.60;;;23.80;65.40;;;;;;5036410;28;20444;-74
2022/06/25 10:02:29;;;;;;;0.70;0.60;;;24.00;66.50;;;;;;5035670;28;20575;-74
2022/06/25 10:05:01;;;;;;;0.70;0.60;;;24.30;66.80;;;;;;5037571;28;20451;-73
2022/06/25 10:10:14;;;;;;;0.80;0.70;;;24.20;64.10;;;;;;5039615;28;20482;-73
2022/06/25 10:12:41;;;;;;;0.70;0.50;;;24.20;64.60;;;;;;5039098;28;20472;-73
2022/06/25 10:15:08;;;;;;;0.90;0.60;;;24.40;65.00;;;;;;5039479;28;20451;-74
2022/06/25 10:17:35;;;;;;;0.80;0.60;;;24.70;64.10;;;;;;5039689;28;20455;-73
2022/06/25 10:20:04;;;;;;;0.70;0.60;;;24.50;60.50;;;;;;5038833;28;20439;-73
2022/06/25 10:22:32;;;;;;;0.70;0.53;;;24.40;61.50;;;;;;5038924;28;20470;-74
2022/06/25 10:25:00;;;;;;;2.70;0.70;;;24.30;59.40;;;;;;5038750;28;20455;-74
2022/06/25 10:27:27;;;;;;;0.70;0.60;;;24.50;61.40;;;;;;5038974;28;20454;-73
2022/06/25 10:29:56;;;;;;;0.80;0.60;;;24.60;63.80;;;;;;5039143;28;20475;-73
2022/06/25 10:32:25;;;;;;;1.33;0.80;;;24.60;63.20;;;;;;5039321;28;20491;-74
2022/06/25 10:34:56;;;;;;;0.70;0.60;;;24.70;63.10;;;;;;5039569;28;20439;-74
2022/06/25 10:37:24;;;;;;;0.80;0.70;;;24.80;62.10;;;;;;5039004;28;20835;-74
2022/06/25 10:39:53;;;;;;;1.07;0.60;;;24.90;64.40;;;;;;5038124;28;20443;-74
2022/06/25 10:45:51;;;;;;;0.80;0.60;;;25.00;65.00;;;;;;5038512;28;20407;-73
2022/06/25 10:48:22;;;;;;;0.80;0.60;;;25.00;60.40;;;;;;5038952;28;20895;-73
2022/06/25 10:50:50;;;;;;;0.70;0.60;;;25.00;61.80;;;;;;5038944;28;20471;-74
2022/06/25 10:53:26;;;;;;;0.70;0.60;;;25.10;60.90;;;;;;5037894;28;20478;-74
2022/06/25 10:56:23;;;;;;;0.90;0.67;;;25.00;61.50;;;;;;5038528;28;20485;-74
2022/06/25 10:58:50;;;;;;;1.27;0.60;;;25.20;62.60;;;;;;5037878;28;20429;-74
2022/06/25 11:01:23;;;;;;;0.80;0.67;;;25.50;60.40;;;;;;5037082;28;20475;-73
2022/06/25 11:03:54;;;;;;;0.70;0.60;;;25.60;59.70;;;;;;5036100;28;20501;-73
2022/06/25 11:06:23;;;;;;;0.80;0.70;;;25.60;59.00;;;;;;5036081;28;20439;-72
2022/06/25 11:08:52;;;;;;;0.70;0.60;;;25.80;61.00;;;;;;5035890;28;20582;-72
2022/06/25 11:11:26;;;;;;;0.90;0.67;;;25.90;58.80;;;;;;5035614;28;20558;-71
2022/06/25 11:13:54;;;;;;;1.07;0.70;;;25.60;58.40;;;;;;5035635;28;20956;-73
2022/06/25 11:16:21;;;;;;;0.80;0.60;;;25.60;59.80;;;;;;5034619;28;20858;-75
2022/06/25 11:18:49;;;;;;;0.70;0.60;;;25.70;59.60;;;;;;5037789;28;20497;-73
2022/06/25 11:21:27;;;;;;;0.70;0.50;;;25.80;60.30;;;;;;5038259;28;20475;-72
2022/06/25 11:24:06;;;;;;;0.70;0.60;;;25.70;58.50;;;;;;5037493;28;20451;-73
2022/06/25 11:29:20;;;;;;;0.70;0.60;;;25.90;58.00;;;;;;5038679;28;20455;-73
2022/06/25 11:31:47;;;;;;;0.70;0.60;;;26.10;58.90;;;;;;5038290;28;20490;-74
2022/06/25 11:34:18;;;;;;;0.70;0.60;;;26.10;58.50;;;;;;5037551;28;20997;-73
2022/06/25 11:36:44;;;;;;;0.70;0.60;;;25.90;58.40;;;;;;5038184;28;20477;-73
2022/06/25 11:39:15;;;;;;;0.70;0.60;;;25.80;60.30;;;;;;5035971;28;20451;-73
2022/06/25 11:44:59;;;;;;;0.70;0.60;;;25.80;59.20;;;;;;5032762;28;20923;-73
2022/06/25 11:47:27;;;;;;;0.80;0.60;;;25.80;59.10;;;;;;5035367;28;20950;-73
2022/06/25 11:49:55;;;;;;;0.70;0.60;;;26.00;57.70;;;;;;5035551;28;20483;-73
2022/06/25 11:52:24;;;;;;;0.70;0.50;;;26.00;57.40;;;;;;5035549;28;20525;-72
2022/06/25 11:54:54;;;;;;;0.73;0.60;;;25.60;57.00;;;;;;5034917;28;20874;-73
2022/06/25 11:57:23;;;;;;;0.70;0.53;;;25.70;57.50;;;;;;5035486;28;20455;-73
2022/06/25 11:59:51;;;;;;;0.80;0.60;;;25.90;58.60;;;;;;5035337;28;20447;-73
2022/06/25 12:02:18;;;;;;;0.70;0.60;;;26.30;56.20;;;;;;5034898;28;20912;-72
2022/06/25 12:04:49;;;;;;;0.73;0.57;;;26.30;55.80;;;;;;5035489;28;20474;-73
2022/06/25 12:07:21;;;;;;;0.70;0.60;;;26.20;56.90;;;;;;5035342;28;20523;-73
2022/06/25 12:09:48;;;;;;;1.00;0.60;;;26.30;57.40;;;;;;5035145;28;20486;-73
2022/06/25 12:12:17;;;;;;;0.70;0.50;;;26.40;56.60;;;;;;5035116;28;20982;-73
2022/06/25 12:14:46;;;;;;;0.70;0.60;;;26.20;55.90;;;;;;5035446;28;20526;-72
2022/06/25 12:17:13;;;;;;;0.70;0.60;;;26.10;57.70;;;;;;5035181;28;20446;-73
2022/06/25 12:19:48;;;;;;;0.73;0.63;;;25.80;57.00;;;;;;5034708;28;20632;-73
2022/06/25 12:22:22;;;;;;;0.80;0.60;;;25.60;58.30;;;;;;5034978;28;20471;-72
2022/06/25 12:24:50;;;;;;;0.80;0.60;;;25.70;59.00;;;;;;5034767;28;20854;-73
2022/06/25 12:27:18;;;;;;;0.70;0.50;;;26.20;57.60;;;;;;5035084;28;21008;-73
2022/06/25 12:29:47;;;;;;;0.70;0.60;;;26.40;55.00;;;;;;5034933;28;20483;-73
2022/06/25 12:32:15;;;;;;;0.80;0.60;;;26.50;55.00;;;;;;5035053;28;20473;-73
2022/06/25 12:34:50;;;;;;;0.70;0.50;;;26.40;56.20;;;;;;5035798;28;20455;-73
2022/06/25 12:37:30;;;;;;;0.70;0.50;;;26.40;55.30;;;;;;5034644;28;20436;-73
2022/06/25 12:39:58;;;;;;;0.70;0.50;;;26.30;56.80;;;;;;5034882;28;20448;-73
2022/06/25 12:42:28;;;;;;;0.70;0.60;;;26.60;56.40;;;;;;5036063;28;20543;-74
2022/06/25 12:44:55;;;;;;;0.70;0.60;;;26.90;57.10;;;;;;5036267;28;20907;-74
2022/06/25 12:47:23;;;;;;;0.70;0.60;;;26.80;57.10;;;;;;5035830;28;20490;-74
2022/06/25 12:49:52;;;;;;;0.70;0.60;;;26.70;56.00;;;;;;5035777;28;20487;-74
2022/06/25 12:52:20;;;;;;;0.70;0.50;;;26.70;56.70;;;;;;5035794;28;20982;-74
2022/06/25 12:54:49;;;;;;;1.10;0.70;;;26.50;55.20;;;;;;5035638;28;20455;-74
2022/06/25 12:57:28;;;;;;;0.70;0.60;;;26.50;54.30;;;;;;5035989;28;20435;-74
2022/06/25 12:59:55;;;;;;;0.80;0.50;;;26.70;54.80;;;;;;5036080;28;20443;-74
2022/06/25 13:02:23;;;;;;;0.70;0.60;;;26.70;54.60;;;;;;5035282;28;20488;-74
2022/06/25 13:04:50;;;;;;;0.97;0.60;;;26.70;55.30;;;;;;5035993;28;20447;-74
2022/06/25 13:07:18;;;;;;;0.70;0.60;;;27.00;53.90;;;;;;5035607;28;20509;-74
2022/06/25 13:09:46;;;;;;;0.70;0.57;;;27.40;53.70;;;;;;5035407;28;20517;-74
2022/06/25 13:12:13;;;;;;;0.70;0.50;;;27.50;53.30;;;;;;5036257;28;20521;-74
2022/06/25 13:14:42;;;;;;;0.70;0.60;;;27.50;54.30;;;;;;5036298;28;20454;-74
2022/06/25 13:17:09;;;;;;;1.03;0.60;;;27.20;54.20;;;;;;5036716;28;20454;-74
2022/06/25 13:19:38;;;;;;;0.80;0.60;;;27.40;53.90;;;;;;5036601;28;20468;-74
2022/06/25 13:22:06;;;;;;;1.17;0.57;;;27.70;53.10;;;;;;5036500;28;20471;-74
2022/06/25 13:24:33;;;;;;;0.70;0.60;;;27.60;52.60;;;;;;5037685;28;20871;-74
2022/06/25 13:27:00;;;;;;;0.80;0.60;;;27.00;53.70;;;;;;5036879;28;20448;-74
2022/06/25 13:29:27;;;;;;;0.70;0.60;;;26.80;54.40;;;;;;5036439;28;20537;-74
2022/06/25 13:31:55;;;;;;;0.70;0.60;;;26.90;53.40;;;;;;5036825;28;20478;-74
2022/06/25 13:34:22;;;;;;;0.70;0.50;;;26.70;54.00;;;;;;5036674;28;21053;-74
2022/06/25 13:36:48;;;;;;;0.70;0.60;;;26.70;54.70;;;;;;5037118;28;20509;-73
2022/06/25 13:39:15;;;;;;;0.70;0.60;;;27.00;55.60;;;;;;5037870;28;20462;-74
2022/06/25 13:41:44;;;;;;;0.70;0.60;;;27.40;55.80;;;;;;5036731;28;20982;-74
2022/06/25 13:44:11;;;;;;;0.70;0.60;;;27.60;53.20;;;;;;5037307;28;20546;-74
2022/06/25 13:46:38;;;;;;;0.80;0.60;;;27.40;52.70;;;;;;5037196;28;20451;-73
2022/06/25 13:49:06;;;;;;;0.70;0.60;;;27.10;52.10;;;;;;5037256;28;20447;-74
2022/06/25 13:51:33;;;;;;;0.70;0.63;;;26.90;53.20;;;;;;5036623;28;20467;-74
2022/06/25 13:54:00;;;;;;;0.70;0.60;;;27.30;55.00;;;;;;5036731;28;20451;-74
2022/06/25 13:56:27;;;;;;;0.70;0.50;;;27.60;52.40;;;;;;5037136;28;20450;-74
2022/06/25 13:58:54;;;;;;;0.70;0.60;;;27.80;52.20;;;;;;5037150;28;20443;-74
2022/06/25 14:01:21;;;;;;;0.80;0.53;;;28.10;51.50;;;;;;5037130;28;20475;-74
2022/06/25 14:03:47;;;;;;;0.70;0.60;;;28.20;50.30;;;;;;5037411;28;20447;-74
2022/06/25 14:06:15;;;;;;;0.70;0.60;;;28.10;50.70;;;;;;5036940;28;20478;-74
2022/06/25 14:08:43;;;;;;;0.90;0.60;;;28.00;49.90;;;;;;5037620;28;20451;-73
2022/06/25 14:11:11;;;;;;;0.70;0.60;;;28.40;50.70;;;;;;5037332;28;20494;-74
2022/06/25 14:13:39;;;;;;;0.70;0.60;;;28.30;49.90;;;;;;5035939;28;20447;-74
2022/06/25 14:16:05;;;;;;;0.70;0.50;;;28.50;48.90;;;;;;5036101;28;20451;-73
2022/06/25 14:18:33;;;;;;;0.70;0.60;;;28.80;52.10;;;;;;5034610;28;20482;-73
2022/06/25 14:21:01;;;;;;;0.70;0.60;;;29.10;51.40;;;;;;5034436;28;20468;-72
2022/06/25 14:23:30;;;;;;;0.70;0.60;;;29.00;50.30;;;;;;5034398;28;20454;-71
2022/06/25 14:25:56;;;;;;;0.70;0.60;;;28.80;51.10;;;;;;5035498;28;20451;-72
2022/06/25 14:28:23;;;;;;;0.70;0.60;;;28.40;50.00;;;;;;5036862;28;20509;-71
2022/06/25 14:30:50;;;;;;;0.70;0.50;;;28.40;51.30;;;;;;5036146;28;21002;-71
2022/06/25 14:33:17;;;;;;;0.80;0.60;;;28.40;51.20;;;;;;5036718;28;20474;-72
2022/06/25 14:42:20;;;;;;;0.70;0.60;;;28.20;51.00;;;;;;5035239;28;20574;-71
2022/06/25 14:44:00;;;;;;;0.70;0.60;;;28.10;51.70;;;;;;5035895;28;20573;-72
2022/06/25 14:46:27;;;;;;;0.70;0.60;;;27.90;52.00;;;;;;5035914;28;20447;-71
2022/06/25 14:48:53;;;;;;;0.80;0.70;;;27.70;52.20;;;;;;5035104;28;20455;-71
2022/06/25 14:51:20;;;;;;;0.90;0.60;;;27.90;53.10;;;;;;5035529;28;20552;-71
2022/06/25 14:53:48;;;;;;;0.80;0.60;;;28.10;53.30;;;;;;5037986;28;20860;-71
2022/06/25 14:56:15;;;;;;;0.70;0.63;;;28.20;51.90;;;;;;5038349;28;20454;-71
2022/06/25 14:58:42;;;;;;;0.70;0.60;;;28.30;53.00;;;;;;5038115;28;20459;-72
2022/06/25 15:01:09;;;;;;;0.70;0.53;;;28.40;51.90;;;;;;5037160;28;20490;-72
2022/06/25 15:03:36;;;;;;;0.70;0.50;;;28.50;52.50;;;;;;5036595;28;20451;-72
2022/06/25 15:06:04;;;;;;;0.70;0.60;;;28.70;52.60;;;;;;5036334;28;20452;-72
2022/06/25 15:08:31;;;;;;;0.80;0.60;;;29.00;51.70;;;;;;5036565;28;20455;-72
2022/06/25 15:10:59;;;;;;;0.90;0.60;;;28.90;52.30;;;;;;5036229;28;20911;-72
2022/06/25 15:13:26;;;;;;;0.70;0.57;;;28.90;51.80;;;;;;5035916;28;20860;-72
2022/06/25 15:15:53;;;;;;;0.70;0.50;;;28.80;51.70;;;;;;5037723;28;20462;-71
2022/06/25 15:18:20;;;;;;;0.80;0.60;;;28.50;52.20;;;;;;5036584;28;20447;-71
2022/06/25 15:20:47;;;;;;;0.80;0.57;;;28.30;52.30;;;;;;5037042;28;20463;-71
2022/06/25 15:23:13;;;;;;;0.70;0.60;;;28.40;52.90;;;;;;5036081;28;20447;-72
2022/06/25 15:25:40;;;;;;;0.70;0.53;;;28.30;52.80;;;;;;5036169;28;20460;-72
2022/06/25 15:28:08;;;;;;;0.70;0.60;;;28.00;52.90;;;;;;5036275;28;20455;-72
2022/06/25 15:30:35;;;;;;;0.70;0.60;;;27.80;53.40;;;;;;5036064;28;20479;-72
2022/06/25 15:33:02;;;;;;;0.70;0.60;;;27.80;54.00;;;;;;5036226;28;20856;-72
2022/06/25 15:35:29;;;;;;;0.70;0.60;;;27.90;53.60;;;;;;5036283;28;20447;-72
2022/06/25 15:37:55;;;;;;;0.70;0.60;;;27.70;53.40;;;;;;5035948;28;20494;-72
2022/06/25 15:40:23;;;;;;;0.80;0.60;;;27.50;53.40;;;;;;5035858;28;20443;-72
2022/06/25 15:42:49;;;;;;;0.70;0.53;;;27.50;54.10;;;;;;5037118;28;20459;-73
2022/06/25 15:45:17;;;;;;;0.70;0.60;;;27.30;53.70;;;;;;5035967;28;20447;-73
2022/06/25 15:47:44;;;;;;;1.00;0.50;;;27.30;53.40;;;;;;5035687;28;20451;-72
2022/06/25 15:50:11;;;;;;;0.70;0.60;;;27.10;54.90;;;;;;5035460;28;20483;-72
2022/06/25 15:52:37;;;;;;;0.70;0.70;;;27.10;53.00;;;;;;5035488;28;20471;-72
2022/06/25 15:55:05;;;;;;;0.70;0.60;;;27.10;53.80;;;;;;5036225;28;20443;-72
2022/06/25 15:57:31;;;;;;;0.70;0.50;;;27.20;53.80;;;;;;5035642;28;20455;-73
2022/06/25 15:59:58;;;;;;;0.70;0.60;;;27.10;53.90;;;;;;5035460;28;20493;-72
2022/06/25 16:02:26;;;;;;;0.70;0.50;;;27.10;53.90;;;;;;5034408;28;20492;-72
2022/06/25 16:04:52;;;;;;;0.70;0.60;;;27.00;54.70;;;;;;5035598;28;20510;-72
2022/06/25 16:07:19;;;;;;;0.70;0.60;;;27.10;54.90;;;;;;5035628;28;20992;-73
2022/06/25 16:09:46;;;;;;;0.80;0.60;;;27.30;54.90;;;;;;5034629;28;20451;-74
2022/06/25 16:12:12;;;;;;;0.80;0.50;;;27.20;54.70;;;;;;5034757;28;20884;-72